Time;durP1;ratioP1;P1;durP2;ratioP2;P2;SDS_P1;SDS_P2;PMS_P1;PMS_P2;Temp;Humidity;BMP_temperature;BMP_pressure;BME280_temperature;BME280_humidity;BME280_pressure;Samples;Min_cycle;Max_cycle;Signal;HPM_P1;HPM_P2
2023/01/22 00:01:16;;;;;;;62.23;25.03;;;;;;;;;;5031636;28;20214;-66
2023/01/22 00:03:41;;;;;;;54.73;23.33;;;;;;;;;;5039239;28;20189;-67
2023/01/22 00:06:08;;;;;;;62.90;25.40;;;;;;;;;;5045989;28;20194;-66
2023/01/22 00:08:34;;;;;;;60.70;25.50;;;;;;;;;;5040903;28;20506;-67
2023/01/22 00:11:00;;;;;;;57.20;23.17;;;;;;;;;;5044677;28;20270;-66
2023/01/22 00:13:26;;;;;;;59.67;23.80;;;;;;;;;;5039474;28;20194;-66
2023/01/22 00:15:52;;;;;;;64.83;24.53;;;;;;;;;;5043146;28;20593;-66
2023/01/22 00:18:19;;;;;;;56.40;23.93;;;;;;;;;;5043393;28;20646;-67
2023/01/22 00:20:48;;;;;;;67.73;25.57;;;;;;;;;;5038998;28;20186;-67
2023/01/22 00:23:14;;;;;;;67.27;25.40;;;;;;;;;;5026089;28;20179;-66
2023/01/22 00:25:40;;;;;;;63.67;24.50;;;;;;;;;;5043295;28;20275;-67
2023/01/22 00:28:06;;;;;;;70.57;23.47;;;;;;;;;;5043998;28;20693;-67
2023/01/22 00:30:32;;;;;;;67.03;25.67;;;;;;;;;;5039837;28;20838;-66
2023/01/22 00:32:57;;;;;;;65.00;25.33;;;;;;;;;;5035899;28;20223;-66
2023/01/22 00:35:22;;;;;;;59.57;23.27;;;;;;;;;;5026319;28;20186;-66
2023/01/22 00:37:48;;;;;;;58.57;23.10;;;;;;;;;;5018406;28;20510;-66
2023/01/22 00:40:15;;;;;;;60.77;23.20;;;;;;;;;;5028843;28;20594;-66
2023/01/22 00:42:40;;;;;;;55.57;21.77;;;;;;;;;;5022483;28;20190;-66
2023/01/22 00:45:06;;;;;;;50.83;21.57;;;;;;;;;;5025718;28;20196;-66
2023/01/22 00:47:32;;;;;;;56.53;22.07;;;;;;;;;;5028877;28;20292;-66
2023/01/22 00:49:58;;;;;;;54.30;21.67;;;;;;;;;;5029166;28;20270;-66
2023/01/22 00:52:23;;;;;;;53.87;21.73;;;;;;;;;;5027513;28;20186;-66
2023/01/22 00:54:49;;;;;;;49.73;20.40;;;;;;;;;;5029283;28;20703;-66
2023/01/22 00:57:15;;;;;;;53.23;22.10;;;;;;;;;;5021085;28;20194;-66
2023/01/22 00:59:40;;;;;;;53.27;20.97;;;;;;;;;;5027711;28;20258;-66
2023/01/22 01:02:05;;;;;;;52.57;21.70;;;;;;;;;;5029205;28;20195;-66
2023/01/22 01:04:31;;;;;;;54.27;22.07;;;;;;;;;;5026391;28;20238;-66
2023/01/22 01:06:57;;;;;;;54.77;21.27;;;;;;;;;;5030002;28;20189;-66
2023/01/22 01:09:22;;;;;;;53.20;20.87;;;;;;;;;;5031253;28;20206;-66
2023/01/22 01:11:48;;;;;;;60.83;22.97;;;;;;;;;;5016526;28;20203;-66
2023/01/22 01:14:13;;;;;;;55.47;22.53;;;;;;;;;;5029944;28;20645;-66
2023/01/22 01:16:38;;;;;;;55.37;22.27;;;;;;;;;;5024080;28;20540;-66
2023/01/22 01:19:07;;;;;;;56.60;22.67;;;;;;;;;;5027857;28;20430;-66
2023/01/22 01:21:33;;;;;;;56.13;22.60;;;;;;;;;;5025047;28;20231;-66
2023/01/22 01:23:59;;;;;;;59.40;22.63;;;;;;;;;;5022791;28;20629;-66
2023/01/22 01:26:25;;;;;;;60.83;24.27;;;;;;;;;;5023551;28;20238;-66
2023/01/22 01:28:51;;;;;;;60.67;25.03;;;;;;;;;;5013901;28;20293;-66
2023/01/22 01:31:17;;;;;;;65.57;22.97;;;;;;;;;;5027838;28;20312;-66
2023/01/22 01:33:44;;;;;;;59.70;22.03;;;;;;;;;;5027751;28;20530;-67
2023/01/22 01:36:12;;;;;;;62.43;24.57;;;;;;;;;;5027969;28;20194;-66
2023/01/22 01:38:38;;;;;;;60.17;23.73;;;;;;;;;;5043006;28;20192;-66
2023/01/22 01:41:04;;;;;;;66.07;23.50;;;;;;;;;;5029865;28;20602;-66
2023/01/22 01:43:30;;;;;;;61.13;22.67;;;;;;;;;;5029189;28;20198;-66
2023/01/22 01:45:58;;;;;;;52.87;23.13;;;;;;;;;;5024051;28;20240;-66
2023/01/22 01:48:32;;;;;;;54.53;23.73;;;;;;;;;;5031369;28;20259;-66
2023/01/22 01:51:19;;;;;;;56.73;22.63;;;;;;;;;;5041687;28;20182;-66
2023/01/22 01:53:46;;;;;;;61.37;21.70;;;;;;;;;;5039015;28;20673;-66
2023/01/22 01:56:17;;;;;;;59.13;23.03;;;;;;;;;;5029131;28;20656;-66
2023/01/22 01:58:44;;;;;;;59.67;23.10;;;;;;;;;;5019569;28;20209;-67
2023/01/22 02:01:13;;;;;;;57.77;22.77;;;;;;;;;;5024944;28;20203;-66
2023/01/22 02:03:39;;;;;;;50.73;20.67;;;;;;;;;;5027569;28;20194;-67
2023/01/22 02:06:08;;;;;;;48.33;20.43;;;;;;;;;;5035550;28;20274;-67
2023/01/22 02:08:33;;;;;;;40.60;20.37;;;;;;;;;;5026778;28;20298;-67
2023/01/22 02:10:59;;;;;;;36.57;16.30;;;;;;;;;;5041932;28;20212;-68
2023/01/22 02:13:29;;;;;;;42.63;19.27;;;;;;;;;;5033304;28;20209;-68
2023/01/22 02:15:55;;;;;;;40.83;19.40;;;;;;;;;;5044476;28;20233;-67
2023/01/22 02:18:23;;;;;;;43.17;19.83;;;;;;;;;;5022979;28;20215;-67
2023/01/22 02:21:00;;;;;;;37.40;18.83;;;;;;;;;;5025328;28;20198;-69
2023/01/22 02:23:27;;;;;;;36.90;17.60;;;;;;;;;;5024417;28;20182;-68
2023/01/22 02:25:54;;;;;;;41.70;17.83;;;;;;;;;;5030807;28;20238;-68
2023/01/22 02:28:19;;;;;;;37.13;17.60;;;;;;;;;;5025832;28;20202;-68
2023/01/22 02:30:45;;;;;;;33.13;15.70;;;;;;;;;;5033017;28;20601;-68
2023/01/22 02:33:10;;;;;;;29.37;15.67;;;;;;;;;;5034759;28;20204;-68
2023/01/22 02:35:36;;;;;;;31.87;14.13;;;;;;;;;;5028019;28;20344;-69
2023/01/22 02:38:02;;;;;;;32.83;15.70;;;;;;;;;;5041342;28;20252;-68
2023/01/22 02:40:28;;;;;;;31.53;15.90;;;;;;;;;;5028551;28;20653;-68
2023/01/22 02:42:54;;;;;;;33.80;16.70;;;;;;;;;;5039700;28;20641;-68
2023/01/22 02:45:20;;;;;;;31.07;15.30;;;;;;;;;;5045087;28;20197;-68
2023/01/22 02:47:45;;;;;;;25.67;14.60;;;;;;;;;;5025134;28;20202;-68
2023/01/22 02:50:11;;;;;;;28.57;14.83;;;;;;;;;;5038488;28;20186;-68
2023/01/22 02:52:36;;;;;;;28.60;14.37;;;;;;;;;;5021270;28;20203;-68
2023/01/22 02:55:02;;;;;;;30.27;13.37;;;;;;;;;;5030299;28;20186;-68
2023/01/22 02:57:30;;;;;;;24.47;12.67;;;;;;;;;;5033192;28;20490;-69
2023/01/22 02:59:55;;;;;;;24.57;13.13;;;;;;;;;;5044605;28;20217;-68
2023/01/22 03:02:21;;;;;;;22.63;12.50;;;;;;;;;;5021952;28;20639;-68
2023/01/22 03:04:48;;;;;;;22.67;12.70;;;;;;;;;;5014318;28;20199;-68
2023/01/22 03:07:16;;;;;;;22.20;11.50;;;;;;;;;;5032565;28;20270;-68
2023/01/22 03:09:41;;;;;;;20.63;12.37;;;;;;;;;;5025679;28;20240;-68
2023/01/22 03:12:07;;;;;;;22.87;11.53;;;;;;;;;;5043633;28;20447;-68
2023/01/22 03:22:44;;;;;;;22.47;11.13;;;;;;;;;;5030040;28;20190;-68
2023/01/22 03:25:09;;;;;;;22.37;11.80;;;;;;;;;;5029111;28;20294;-68
2023/01/22 03:27:35;;;;;;;19.37;11.90;;;;;;;;;;5033292;28;20181;-68
2023/01/22 03:30:01;;;;;;;21.73;12.90;;;;;;;;;;5039662;28;20190;-67
2023/01/22 03:32:26;;;;;;;20.67;12.27;;;;;;;;;;5032301;28;20197;-67
2023/01/22 03:34:52;;;;;;;23.67;12.50;;;;;;;;;;5043210;28;20553;-68
2023/01/22 03:37:18;;;;;;;22.60;12.27;;;;;;;;;;5037844;28;20633;-68
2023/01/22 03:39:43;;;;;;;26.87;13.33;;;;;;;;;;5016473;28;20217;-68
2023/01/22 03:42:09;;;;;;;19.80;10.70;;;;;;;;;;5028506;28;20182;-68
2023/01/22 03:44:34;;;;;;;21.20;12.73;;;;;;;;;;5023541;28;20625;-68
2023/01/22 03:47:00;;;;;;;19.30;11.47;;;;;;;;;;5031876;28;20186;-68
2023/01/22 03:49:25;;;;;;;20.27;11.77;;;;;;;;;;5029103;28;20256;-68
2023/01/22 03:51:51;;;;;;;20.43;11.50;;;;;;;;;;5034802;28;20194;-68
2023/01/22 03:54:16;;;;;;;18.20;10.57;;;;;;;;;;5031774;28;20688;-68
2023/01/22 03:56:42;;;;;;;18.27;11.50;;;;;;;;;;5028118;28;20252;-68
2023/01/22 03:59:09;;;;;;;17.73;10.97;;;;;;;;;;5022819;28;20229;-68
2023/01/22 04:01:34;;;;;;;17.90;11.63;;;;;;;;;;5025464;28;20639;-68
2023/01/22 04:04:00;;;;;;;18.70;11.53;;;;;;;;;;5025128;28;20190;-68
2023/01/22 04:06:26;;;;;;;18.93;11.20;;;;;;;;;;5024685;28;20194;-68
2023/01/22 04:08:53;;;;;;;19.77;11.67;;;;;;;;;;5026793;28;20213;-68
2023/01/22 04:11:20;;;;;;;21.17;12.03;;;;;;;;;;5029400;28;20209;-68
2023/01/22 04:13:45;;;;;;;16.90;11.50;;;;;;;;;;5021459;28;20301;-67
2023/01/22 04:16:12;;;;;;;18.90;11.03;;;;;;;;;;5027510;28;20304;-68
2023/01/22 04:18:38;;;;;;;20.70;12.10;;;;;;;;;;5024151;28;20196;-68
2023/01/22 04:21:04;;;;;;;16.60;10.20;;;;;;;;;;5023008;28;20235;-68
2023/01/22 04:23:33;;;;;;;20.30;10.63;;;;;;;;;;5020724;28;20240;-67
2023/01/22 04:25:58;;;;;;;16.40;10.23;;;;;;;;;;5023101;28;20234;-68
2023/01/22 04:28:24;;;;;;;21.73;11.10;;;;;;;;;;5016293;28;20220;-68
2023/01/22 04:30:52;;;;;;;19.27;11.00;;;;;;;;;;5029215;28;20602;-67
2023/01/22 04:33:17;;;;;;;18.40;10.43;;;;;;;;;;5018905;28;20210;-67
2023/01/22 04:35:43;;;;;;;19.20;10.97;;;;;;;;;;5014528;28;20198;-67
2023/01/22 04:38:11;;;;;;;16.57;9.70;;;;;;;;;;5017671;28;20277;-68
2023/01/22 04:40:37;;;;;;;18.70;9.77;;;;;;;;;;5014504;28;20235;-68
2023/01/22 04:43:04;;;;;;;17.77;9.60;;;;;;;;;;5023229;28;20482;-67
2023/01/22 04:45:30;;;;;;;18.40;10.63;;;;;;;;;;5018519;28;20195;-68
2023/01/22 04:47:57;;;;;;;19.30;9.43;;;;;;;;;;5026315;28;20216;-68
2023/01/22 04:50:25;;;;;;;18.03;9.93;;;;;;;;;;5024397;28;20196;-68
2023/01/22 04:52:52;;;;;;;17.23;8.80;;;;;;;;;;5015319;28;20186;-67
2023/01/22 04:55:17;;;;;;;17.83;9.77;;;;;;;;;;5040698;28;20244;-67
2023/01/22 04:57:43;;;;;;;16.27;10.20;;;;;;;;;;5014317;28;20195;-68
2023/01/22 05:00:10;;;;;;;13.30;9.37;;;;;;;;;;5022212;28;20670;-67
2023/01/22 05:02:36;;;;;;;15.77;9.57;;;;;;;;;;5032605;28;20482;-68
2023/01/22 05:05:01;;;;;;;13.60;9.23;;;;;;;;;;5013961;28;20190;-67
2023/01/22 05:07:26;;;;;;;12.80;8.27;;;;;;;;;;5023128;28;20193;-68
2023/01/22 05:09:52;;;;;;;13.03;8.17;;;;;;;;;;5032531;28;20676;-68
2023/01/22 05:12:17;;;;;;;14.67;8.77;;;;;;;;;;5030953;28;20681;-68
2023/01/22 05:14:43;;;;;;;14.40;8.87;;;;;;;;;;5028455;28;20198;-67
2023/01/22 05:17:08;;;;;;;14.40;8.57;;;;;;;;;;5029001;28;20198;-68
2023/01/22 05:19:34;;;;;;;16.37;9.17;;;;;;;;;;5028993;28;20189;-68
2023/01/22 05:22:00;;;;;;;14.17;9.33;;;;;;;;;;5038620;28;20225;-68
2023/01/22 05:24:26;;;;;;;13.03;8.83;;;;;;;;;;5035661;28;20189;-68
2023/01/22 05:26:51;;;;;;;14.67;9.57;;;;;;;;;;5029694;28;20597;-68
2023/01/22 05:29:17;;;;;;;17.33;9.80;;;;;;;;;;5037415;28;20665;-67
2023/01/22 05:31:42;;;;;;;15.50;10.43;;;;;;;;;;5041911;28;20225;-67
2023/01/22 05:34:07;;;;;;;15.60;10.03;;;;;;;;;;5029023;28;20628;-67
2023/01/22 05:36:33;;;;;;;14.73;10.17;;;;;;;;;;5028685;28;20185;-67
2023/01/22 05:38:58;;;;;;;16.10;9.77;;;;;;;;;;5026671;28;20277;-68
2023/01/22 05:41:24;;;;;;;14.67;9.73;;;;;;;;;;5021381;28;20575;-67
2023/01/22 05:43:49;;;;;;;13.23;9.70;;;;;;;;;;5017369;28;20198;-67
2023/01/22 05:46:15;;;;;;;11.00;7.57;;;;;;;;;;5030920;28;20186;-68
2023/01/22 05:48:40;;;;;;;10.33;7.47;;;;;;;;;;5031451;28;20221;-68
2023/01/22 05:51:07;;;;;;;11.93;8.10;;;;;;;;;;5030327;28;20221;-67
2023/01/22 05:53:34;;;;;;;13.27;7.90;;;;;;;;;;5025760;28;20189;-67
2023/01/22 05:56:04;;;;;;;10.33;6.93;;;;;;;;;;5017210;28;20187;-67
2023/01/22 05:58:30;;;;;;;12.23;7.60;;;;;;;;;;5040426;28;20699;-67
2023/01/22 06:00:56;;;;;;;11.93;7.17;;;;;;;;;;5027963;28;20225;-67
2023/01/22 06:03:21;;;;;;;10.07;6.17;;;;;;;;;;5033148;28;20204;-67
2023/01/22 06:05:46;;;;;;;12.80;8.03;;;;;;;;;;5040066;28;20206;-67
2023/01/22 06:08:13;;;;;;;11.17;6.67;;;;;;;;;;5034320;28;20222;-67
2023/01/22 06:10:38;;;;;;;11.13;6.87;;;;;;;;;;5038581;28;20186;-67
2023/01/22 06:13:03;;;;;;;13.30;7.37;;;;;;;;;;5041170;28;20201;-67
2023/01/22 06:15:29;;;;;;;11.30;6.10;;;;;;;;;;5038282;28;20227;-68
2023/01/22 06:17:59;;;;;;;15.53;7.10;;;;;;;;;;5039657;28;20181;-67
2023/01/22 06:20:24;;;;;;;12.00;7.67;;;;;;;;;;5030571;28;20190;-67
2023/01/22 06:22:50;;;;;;;11.47;7.60;;;;;;;;;;5037090;28;20193;-67
2023/01/22 06:25:16;;;;;;;11.50;6.83;;;;;;;;;;5032215;28;20685;-67
2023/01/22 06:27:41;;;;;;;13.60;7.60;;;;;;;;;;5042474;28;20205;-67
2023/01/22 06:30:07;;;;;;;12.93;7.23;;;;;;;;;;5036655;28;20197;-67
2023/01/22 06:32:32;;;;;;;11.43;8.13;;;;;;;;;;5043466;28;20188;-67
2023/01/22 06:34:58;;;;;;;12.07;7.77;;;;;;;;;;5043570;28;20189;-67
2023/01/22 06:37:23;;;;;;;11.77;8.53;;;;;;;;;;5038874;28;20196;-67
2023/01/22 06:39:49;;;;;;;13.60;7.90;;;;;;;;;;5032607;28;20189;-67
2023/01/22 06:42:14;;;;;;;12.63;8.20;;;;;;;;;;5030512;28;20272;-67
2023/01/22 06:44:39;;;;;;;12.67;7.20;;;;;;;;;;5037559;28;20194;-67
2023/01/22 06:47:05;;;;;;;11.57;7.70;;;;;;;;;;5034070;28;20191;-67
2023/01/22 06:49:30;;;;;;;12.67;7.67;;;;;;;;;;5033930;28;20217;-66
2023/01/22 06:51:55;;;;;;;10.50;8.30;;;;;;;;;;5032782;28;20225;-66
2023/01/22 06:54:21;;;;;;;11.87;8.43;;;;;;;;;;5020547;28;20709;-67
2023/01/22 06:56:46;;;;;;;12.97;8.30;;;;;;;;;;5019555;28;20240;-67
2023/01/22 06:59:12;;;;;;;12.30;8.77;;;;;;;;;;5038798;28;20251;-67
2023/01/22 07:01:37;;;;;;;14.70;8.77;;;;;;;;;;5041720;28;20723;-67
2023/01/22 07:04:02;;;;;;;16.87;9.30;;;;;;;;;;5039943;28;20251;-67
2023/01/22 07:06:28;;;;;;;15.67;9.57;;;;;;;;;;5041945;28;20190;-67
2023/01/22 07:08:55;;;;;;;12.70;8.93;;;;;;;;;;5023316;28;20240;-67
2023/01/22 07:11:20;;;;;;;13.40;9.03;;;;;;;;;;5036853;28;20235;-68
2023/01/22 07:13:45;;;;;;;12.23;9.27;;;;;;;;;;5033810;28;20194;-67
2023/01/22 07:16:11;;;;;;;12.50;9.40;;;;;;;;;;5038380;28;20359;-67
2023/01/22 07:18:37;;;;;;;13.73;10.07;;;;;;;;;;5037750;28;20232;-67
2023/01/22 07:21:04;;;;;;;15.47;9.73;;;;;;;;;;5033779;28;20193;-67
2023/01/22 07:23:30;;;;;;;12.43;9.17;;;;;;;;;;5029497;28;20280;-67
2023/01/22 07:25:56;;;;;;;12.90;10.03;;;;;;;;;;5038955;28;20669;-67
2023/01/22 07:28:22;;;;;;;11.87;8.50;;;;;;;;;;5027950;28;20870;-67
2023/01/22 07:30:47;;;;;;;14.90;8.97;;;;;;;;;;5032041;28;20195;-67
2023/01/22 07:33:14;;;;;;;12.40;8.67;;;;;;;;;;5033751;28;20202;-68
2023/01/22 07:35:39;;;;;;;15.00;8.97;;;;;;;;;;5035064;28;20197;-67
2023/01/22 07:38:06;;;;;;;12.00;8.50;;;;;;;;;;5041383;28;20197;-67
2023/01/22 07:40:31;;;;;;;10.70;8.17;;;;;;;;;;5034078;28;20194;-67
2023/01/22 07:42:57;;;;;;;10.90;7.70;;;;;;;;;;5041835;28;20676;-67
2023/01/22 07:45:23;;;;;;;11.30;8.23;;;;;;;;;;5035803;28;20213;-67
2023/01/22 07:47:54;;;;;;;11.17;7.93;;;;;;;;;;5034920;28;20201;-68
2023/01/22 07:50:25;;;;;;;11.27;8.20;;;;;;;;;;5035465;28;20226;-68
2023/01/22 07:52:50;;;;;;;11.60;8.00;;;;;;;;;;5032097;28;20213;-68
2023/01/22 07:55:16;;;;;;;11.37;8.40;;;;;;;;;;5026994;28;20210;-68
2023/01/22 07:57:41;;;;;;;12.60;8.70;;;;;;;;;;5025678;28;20670;-68
2023/01/22 08:00:11;;;;;;;10.73;7.70;;;;;;;;;;5031087;28;20553;-68
2023/01/22 08:02:37;;;;;;;13.13;8.30;;;;;;;;;;5027215;28;20913;-68
2023/01/22 08:05:03;;;;;;;12.10;7.97;;;;;;;;;;5028955;28;20296;-67
2023/01/22 08:07:29;;;;;;;16.13;7.93;;;;;;;;;;5029636;28;20189;-67
2023/01/22 08:09:55;;;;;;;11.80;8.00;;;;;;;;;;5029010;28;20202;-67
2023/01/22 08:12:20;;;;;;;12.47;8.27;;;;;;;;;;5029051;28;20201;-67
2023/01/22 08:14:46;;;;;;;12.97;8.23;;;;;;;;;;5026375;28;20198;-67
2023/01/22 08:17:11;;;;;;;12.17;8.27;;;;;;;;;;5028431;28;20289;-67
2023/01/22 08:19:36;;;;;;;14.17;8.47;;;;;;;;;;5018203;28;20650;-68
2023/01/22 08:22:03;;;;;;;12.13;7.97;;;;;;;;;;5025930;28;20190;-68
2023/01/22 08:24:28;;;;;;;11.37;8.80;;;;;;;;;;5033269;28;20186;-68
2023/01/22 08:26:55;;;;;;;13.03;8.57;;;;;;;;;;5039886;28;20231;-68
2023/01/22 08:29:20;;;;;;;10.63;8.40;;;;;;;;;;5035484;28;20255;-68
2023/01/22 08:31:46;;;;;;;11.10;8.20;;;;;;;;;;5034057;28;20190;-67
2023/01/22 08:34:11;;;;;;;11.83;8.30;;;;;;;;;;5008295;28;20586;-67
2023/01/22 08:36:36;;;;;;;13.30;8.30;;;;;;;;;;5036154;28;20201;-67
2023/01/22 08:39:02;;;;;;;13.20;9.43;;;;;;;;;;5032328;28;20178;-68
2023/01/22 08:41:27;;;;;;;13.23;8.10;;;;;;;;;;5024029;28;20515;-68
2023/01/22 08:43:52;;;;;;;10.80;8.30;;;;;;;;;;5028981;28;20178;-68
2023/01/22 08:46:18;;;;;;;12.27;8.27;;;;;;;;;;5030781;28;20270;-67
2023/01/22 08:48:44;;;;;;;11.73;8.50;;;;;;;;;;5037938;28;20240;-67
2023/01/22 08:51:10;;;;;;;12.07;8.23;;;;;;;;;;5039293;28;20178;-68
2023/01/22 08:53:36;;;;;;;11.97;8.53;;;;;;;;;;5045238;28;20552;-68
2023/01/22 08:56:01;;;;;;;12.13;8.30;;;;;;;;;;5032137;28;20226;-68
2023/01/22 08:58:26;;;;;;;12.87;8.43;;;;;;;;;;5032811;28;20193;-67
2023/01/22 09:00:54;;;;;;;11.07;7.93;;;;;;;;;;5037723;28;20723;-68
2023/01/22 09:03:20;;;;;;;10.87;8.20;;;;;;;;;;5046302;28;20190;-68
2023/01/22 09:05:46;;;;;;;15.50;8.10;;;;;;;;;;5029874;28;20183;-68
2023/01/22 09:08:11;;;;;;;11.87;7.73;;;;;;;;;;5011883;28;20274;-67
2023/01/22 09:10:37;;;;;;;14.93;8.17;;;;;;;;;;5032165;28;20679;-68
2023/01/22 09:13:02;;;;;;;11.73;7.17;;;;;;;;;;5018519;28;20198;-67
2023/01/22 09:15:27;;;;;;;10.87;7.47;;;;;;;;;;5029925;28;20186;-67
2023/01/22 09:17:53;;;;;;;14.90;7.93;;;;;;;;;;5028145;28;20193;-68
2023/01/22 09:20:18;;;;;;;13.30;7.70;;;;;;;;;;5033697;28;20209;-67
2023/01/22 09:22:44;;;;;;;13.10;8.03;;;;;;;;;;5033993;28;20191;-68
2023/01/22 09:25:10;;;;;;;11.97;8.17;;;;;;;;;;5037504;28;20351;-68
2023/01/22 09:27:35;;;;;;;13.73;8.17;;;;;;;;;;5040180;28;20680;-68
2023/01/22 09:30:01;;;;;;;12.37;8.17;;;;;;;;;;5036458;28;20764;-67
2023/01/22 09:32:27;;;;;;;12.43;8.37;;;;;;;;;;5038571;28;20196;-68
2023/01/22 09:34:52;;;;;;;12.27;8.33;;;;;;;;;;5040827;28;20194;-67
2023/01/22 09:37:18;;;;;;;15.43;8.80;;;;;;;;;;5040977;28;20240;-67
2023/01/22 09:39:43;;;;;;;14.63;8.77;;;;;;;;;;5038332;28;20221;-68
2023/01/22 09:42:21;;;;;;;13.13;8.27;;;;;;;;;;5039291;28;20848;-68
2023/01/22 09:44:51;;;;;;;12.97;8.47;;;;;;;;;;5040171;28;20181;-68
2023/01/22 09:47:29;;;;;;;12.70;8.47;;;;;;;;;;5033396;28;20500;-68
2023/01/22 09:50:27;;;;;;;15.40;9.13;;;;;;;;;;5036228;28;20288;-67
2023/01/22 09:52:56;;;;;;;12.70;7.73;;;;;;;;;;5032369;28;20213;-67
2023/01/22 09:55:24;;;;;;;12.70;8.13;;;;;;;;;;5039305;28;20201;-67
2023/01/22 09:57:52;;;;;;;15.50;8.33;;;;;;;;;;5034828;28;20560;-68
2023/01/22 10:00:19;;;;;;;11.03;8.00;;;;;;;;;;5039375;28;20696;-68
2023/01/22 10:02:51;;;;;;;13.57;8.00;;;;;;;;;;5042170;28;20181;-67
2023/01/22 10:05:21;;;;;;;13.37;8.80;;;;;;;;;;5044633;28;20209;-67
2023/01/22 10:07:52;;;;;;;13.33;8.20;;;;;;;;;;5039555;28;20189;-67
2023/01/22 10:10:21;;;;;;;14.10;8.50;;;;;;;;;;5042404;28;20190;-67
2023/01/22 10:13:27;;;;;;;12.30;8.53;;;;;;;;;;5047451;28;20331;-67
2023/01/22 10:15:54;;;;;;;18.83;8.90;;;;;;;;;;5043080;28;20283;-67
2023/01/22 10:18:41;;;;;;;12.33;8.47;;;;;;;;;;5032837;28;20190;-68
2023/01/22 10:21:30;;;;;;;14.30;8.30;;;;;;;;;;5031757;28;20194;-68
2023/01/22 10:23:57;;;;;;;11.00;7.90;;;;;;;;;;5038642;28;20205;-68
2023/01/22 10:26:39;;;;;;;12.60;9.10;;;;;;;;;;5033671;28;20315;-67
2023/01/22 10:29:24;;;;;;;15.80;8.90;;;;;;;;;;5032378;28;20626;-67
2023/01/22 10:31:55;;;;;;;15.00;8.53;;;;;;;;;;5024294;28;20190;-68
2023/01/22 10:34:35;;;;;;;12.40;8.77;;;;;;;;;;5025621;28;20198;-67
2023/01/22 10:37:15;;;;;;;14.53;9.03;;;;;;;;;;5032186;28;20255;-68
2023/01/22 10:39:46;;;;;;;14.37;8.47;;;;;;;;;;5025263;28;20209;-67
2023/01/22 10:42:22;;;;;;;14.37;8.80;;;;;;;;;;5021257;28;20185;-67
2023/01/22 10:44:48;;;;;;;11.80;7.87;;;;;;;;;;5021741;28;20237;-68
2023/01/22 10:47:26;;;;;;;17.77;9.03;;;;;;;;;;5019226;28;20336;-67
2023/01/22 10:50:05;;;;;;;13.47;8.60;;;;;;;;;;5027415;28;20201;-68
2023/01/22 10:52:53;;;;;;;14.20;8.87;;;;;;;;;;5031014;28;20613;-68
2023/01/22 10:55:24;;;;;;;15.67;8.97;;;;;;;;;;5031083;28;20194;-68
2023/01/22 10:58:13;;;;;;;16.10;9.23;;;;;;;;;;5028617;28;20266;-67
2023/01/22 11:00:40;;;;;;;17.80;9.63;;;;;;;;;;5022582;28;20312;-67
2023/01/22 11:03:19;;;;;;;13.03;8.77;;;;;;;;;;5032283;28;20186;-67
2023/01/22 11:05:46;;;;;;;15.00;9.10;;;;;;;;;;5023062;28;20202;-67
2023/01/22 11:08:17;;;;;;;15.13;9.27;;;;;;;;;;5032715;28;20679;-69
2023/01/22 11:10:59;;;;;;;14.77;9.03;;;;;;;;;;5030658;28;20656;-68
2023/01/22 11:13:50;;;;;;;14.40;8.93;;;;;;;;;;5036899;28;20338;-67
2023/01/22 11:16:22;;;;;;;15.27;8.70;;;;;;;;;;5036097;28;20285;-67
2023/01/22 11:18:54;;;;;;;18.03;9.80;;;;;;;;;;5026420;28;20766;-68
2023/01/22 11:21:28;;;;;;;11.77;8.80;;;;;;;;;;5046234;28;20623;-68
2023/01/22 11:24:12;;;;;;;15.77;9.23;;;;;;;;;;5054612;28;20182;-68
2023/01/22 11:27:02;;;;;;;15.87;10.03;;;;;;;;;;5036310;28;20241;-69
2023/01/22 11:30:07;;;;;;;14.10;9.73;;;;;;;;;;5039248;28;20563;-68
2023/01/22 11:32:58;;;;;;;14.80;9.83;;;;;;;;;;5042520;28;20192;-68
2023/01/22 11:35:45;;;;;;;21.17;9.93;;;;;;;;;;5036170;28;20720;-69
2023/01/22 11:38:50;;;;;;;12.80;8.80;;;;;;;;;;5020438;28;20671;-68
2023/01/22 11:41:34;;;;;;;14.47;9.37;;;;;;;;;;5024722;28;20205;-68
2023/01/22 11:44:24;;;;;;;16.87;10.13;;;;;;;;;;5029594;28;20262;-69
2023/01/22 11:47:00;;;;;;;20.30;10.50;;;;;;;;;;5024705;28;20240;-68
2023/01/22 11:49:51;;;;;;;15.67;9.93;;;;;;;;;;5030847;28;20201;-68
2023/01/22 11:52:45;;;;;;;16.73;9.93;;;;;;;;;;5040711;28;20391;-69
2023/01/22 11:55:30;;;;;;;13.87;9.23;;;;;;;;;;5033561;28;20229;-68
2023/01/22 11:58:29;;;;;;;13.30;9.50;;;;;;;;;;5044030;28;20236;-68
2023/01/22 12:01:15;;;;;;;15.10;9.67;;;;;;;;;;5042784;28;20268;-68
2023/01/22 12:04:08;;;;;;;15.67;10.00;;;;;;;;;;5010391;28;20195;-69
2023/01/22 12:06:59;;;;;;;15.93;9.67;;;;;;;;;;5023625;28;20197;-68
2023/01/22 12:09:33;;;;;;;17.40;9.57;;;;;;;;;;5018400;28;20203;-69
2023/01/22 12:12:04;;;;;;;20.50;10.67;;;;;;;;;;5023994;28;20201;-69
2023/01/22 12:15:09;;;;;;;17.80;9.90;;;;;;;;;;5012853;28;21340;-70
2023/01/22 12:18:17;;;;;;;13.67;9.20;;;;;;;;;;5012353;28;20202;-69
2023/01/22 12:20:45;;;;;;;14.77;9.70;;;;;;;;;;5020232;28;20198;-69
2023/01/22 12:23:14;;;;;;;15.03;9.83;;;;;;;;;;5018416;28;20201;-69
2023/01/22 12:25:43;;;;;;;14.90;10.37;;;;;;;;;;5020029;28;20343;-69
2023/01/22 12:28:25;;;;;;;16.63;9.57;;;;;;;;;;5015172;28;20233;-70
2023/01/22 12:31:00;;;;;;;15.73;9.50;;;;;;;;;;5023796;28;20206;-69
2023/01/22 12:33:29;;;;;;;16.70;10.07;;;;;;;;;;5020210;28;20186;-70
2023/01/22 12:35:58;;;;;;;15.70;11.07;;;;;;;;;;5023184;28;20201;-69
2023/01/22 12:38:45;;;;;;;17.00;9.93;;;;;;;;;;5013939;28;20640;-69
2023/01/22 12:41:23;;;;;;;20.23;10.53;;;;;;;;;;5018172;28;20599;-70
2023/01/22 12:43:58;;;;;;;16.03;10.27;;;;;;;;;;5017581;28;20222;-67
2023/01/22 12:46:26;;;;;;;16.23;9.83;;;;;;;;;;5020678;28;20196;-67
2023/01/22 12:48:58;;;;;;;17.90;10.40;;;;;;;;;;5023414;28;20301;-67
2023/01/22 12:51:40;;;;;;;15.13;10.17;;;;;;;;;;5025045;28;20409;-68
2023/01/22 12:54:21;;;;;;;16.27;9.73;;;;;;;;;;5027164;28;20193;-68
2023/01/22 12:56:49;;;;;;;20.53;10.83;;;;;;;;;;5024665;28;20198;-68
2023/01/22 12:59:36;;;;;;;16.20;9.73;;;;;;;;;;5026874;28;20213;-68
2023/01/22 13:02:20;;;;;;;16.57;10.60;;;;;;;;;;5032162;28;20224;-68
2023/01/22 13:04:46;;;;;;;17.60;10.50;;;;;;;;;;5033581;28;20246;-68
2023/01/22 13:07:23;;;;;;;14.77;9.80;;;;;;;;;;5037190;28;20578;-68
2023/01/22 13:10:20;;;;;;;14.63;10.40;;;;;;;;;;5039875;28;20224;-68
2023/01/22 13:12:48;;;;;;;19.57;9.90;;;;;;;;;;5016498;28;20221;-68
2023/01/22 13:15:19;;;;;;;17.37;10.10;;;;;;;;;;5030989;28;20204;-68
2023/01/22 13:17:54;;;;;;;18.33;11.00;;;;;;;;;;5023924;28;20221;-68
2023/01/22 13:20:20;;;;;;;22.17;11.37;;;;;;;;;;5034037;28;20197;-68
2023/01/22 13:22:46;;;;;;;18.00;10.93;;;;;;;;;;5039698;28;20214;-68
2023/01/22 13:25:26;;;;;;;17.60;10.47;;;;;;;;;;5037087;28;20225;-67
2023/01/22 13:27:52;;;;;;;21.03;11.17;;;;;;;;;;5029035;28;20177;-68
2023/01/22 13:30:25;;;;;;;17.03;10.33;;;;;;;;;;5028622;28;20547;-68
2023/01/22 13:33:03;;;;;;;16.33;10.90;;;;;;;;;;5027699;28;20190;-68
2023/01/22 13:35:29;;;;;;;15.10;10.60;;;;;;;;;;5036933;28;20189;-68
2023/01/22 13:37:54;;;;;;;16.00;10.27;;;;;;;;;;5026821;28;20196;-67
2023/01/22 13:40:26;;;;;;;15.97;10.47;;;;;;;;;;5042997;28;20189;-68
2023/01/22 13:42:52;;;;;;;20.50;11.60;;;;;;;;;;5016439;28;20202;-68
2023/01/22 13:45:22;;;;;;;16.60;10.27;;;;;;;;;;5043943;28;20289;-68
2023/01/22 13:47:49;;;;;;;20.53;11.37;;;;;;;;;;5039362;28;20192;-69
2023/01/22 13:50:24;;;;;;;21.10;10.80;;;;;;;;;;5046235;28;20213;-69
2023/01/22 13:52:49;;;;;;;19.20;11.80;;;;;;;;;;5040530;28;20192;-68
2023/01/22 13:55:17;;;;;;;19.30;10.77;;;;;;;;;;5039971;28;20185;-69
2023/01/22 13:57:48;;;;;;;23.97;11.73;;;;;;;;;;5019678;28;20220;-68
2023/01/22 14:00:27;;;;;;;20.30;11.80;;;;;;;;;;5035419;28;20505;-68
2023/01/22 14:02:54;;;;;;;20.40;11.17;;;;;;;;;;5016638;28;20722;-68
2023/01/22 14:05:25;;;;;;;18.07;10.93;;;;;;;;;;5046259;28;20663;-68
2023/01/22 14:08:03;;;;;;;17.90;10.70;;;;;;;;;;5039274;28;20299;-69
2023/01/22 14:10:29;;;;;;;19.87;11.70;;;;;;;;;;5042402;28;20720;-68
2023/01/22 14:13:05;;;;;;;18.53;11.33;;;;;;;;;;5039015;28;20297;-68
2023/01/22 14:15:32;;;;;;;19.13;11.13;;;;;;;;;;5035321;28;20770;-68
2023/01/22 14:18:12;;;;;;;18.13;10.40;;;;;;;;;;5040123;28;20206;-68
2023/01/22 14:20:39;;;;;;;17.87;11.40;;;;;;;;;;5032525;28;20189;-68
2023/01/22 14:23:06;;;;;;;17.87;10.73;;;;;;;;;;5032540;28;20683;-68
2023/01/22 14:25:31;;;;;;;17.80;11.03;;;;;;;;;;5041926;28;20229;-68
2023/01/22 14:27:58;;;;;;;20.30;10.33;;;;;;;;;;5042425;28;20202;-68
2023/01/22 14:30:24;;;;;;;17.60;10.97;;;;;;;;;;5033447;28;20190;-68
2023/01/22 14:32:50;;;;;;;15.77;10.33;;;;;;;;;;5040187;28;20198;-69
2023/01/22 14:35:17;;;;;;;18.13;11.00;;;;;;;;;;5014797;28;20404;-68
2023/01/22 14:37:44;;;;;;;15.27;10.57;;;;;;;;;;5020033;28;20269;-68
2023/01/22 14:40:14;;;;;;;19.90;10.97;;;;;;;;;;5038224;28;20190;-69
2023/01/22 14:42:40;;;;;;;19.93;10.77;;;;;;;;;;5033999;28;20663;-69
2023/01/22 14:45:06;;;;;;;22.77;11.27;;;;;;;;;;5025927;28;20246;-68